sensor_id;sensor_type;location;lat;lon;timestamp;temperature;humidity
48604;DHT22;32708;51.212;6.788;2024-03-07T00:00:43;7.60;99.90
48604;DHT22;32708;51.212;6.788;2024-03-07T00:03:09;7.80;99.90
48604;DHT22;32708;51.212;6.788;2024-03-07T00:05:35;7.60;99.90
48604;DHT22;32708;51.212;6.788;2024-03-07T00:08:02;7.50;99.90
48604;DHT22;32708;51.212;6.788;2024-03-07T00:10:29;7.60;99.90
48604;DHT22;32708;51.212;6.788;2024-03-07T00:12:55;7.60;99.90
48604;DHT22;32708;51.212;6.788;2024-03-07T00:15:21;7.60;99.90
48604;DHT22;32708;51.212;6.788;2024-03-07T00:17:47;7.50;99.90
48604;DHT22;32708;51.212;6.788;2024-03-07T00:20:14;7.60;99.90
48604;DHT22;32708;51.212;6.788;2024-03-07T00:22:41;7.60;99.90
48604;DHT22;32708;51.212;6.788;2024-03-07T00:25:08;7.70;99.90
48604;DHT22;32708;51.212;6.788;2024-03-07T00:27:36;7.60;99.90
48604;DHT22;32708;51.212;6.788;2024-03-07T00:30:03;7.50;99.90
48604;DHT22;32708;51.212;6.788;2024-03-07T00:32:31;7.50;99.90
48604;DHT22;32708;51.212;6.788;2024-03-07T00:35:01;7.40;99.90
48604;DHT22;32708;51.212;6.788;2024-03-07T00:37:31;7.40;99.90
48604;DHT22;32708;51.212;6.788;2024-03-07T00:39:58;7.30;99.90
48604;DHT22;32708;51.212;6.788;2024-03-07T00:42:24;7.40;99.90
48604;DHT22;32708;51.212;6.788;2024-03-07T00:44:50;7.40;99.90
48604;DHT22;32708;51.212;6.788;2024-03-07T00:47:17;7.30;99.90
48604;DHT22;32708;51.212;6.788;2024-03-07T00:49:46;7.30;99.90
48604;DHT22;32708;51.212;6.788;2024-03-07T00:52:13;7.20;99.90
48604;DHT22;32708;51.212;6.788;2024-03-07T00:54:40;7.20;99.90
48604;DHT22;32708;51.212;6.788;2024-03-07T00:57:07;7.50;99.90
48604;DHT22;32708;51.212;6.788;2024-03-07T00:59:34;7.00;99.90
48604;DHT22;32708;51.212;6.788;2024-03-07T01:02:01;7.50;99.90
48604;DHT22;32708;51.212;6.788;2024-03-07T01:04:27;7.20;99.90
48604;DHT22;32708;51.212;6.788;2024-03-07T01:06:59;7.20;99.90
48604;DHT22;32708;51.212;6.788;2024-03-07T01:09:27;7.10;99.90
48604;DHT22;32708;51.212;6.788;2024-03-07T01:11:56;7.30;99.90
48604;DHT22;32708;51.212;6.788;2024-03-07T01:14:24;7.30;99.90
48604;DHT22;32708;51.212;6.788;2024-03-07T01:16:50;7.10;99.90
48604;DHT22;32708;51.212;6.788;2024-03-07T01:19:17;7.00;99.90
48604;DHT22;32708;51.212;6.788;2024-03-07T01:21:43;7.10;99.90
48604;DHT22;32708;51.212;6.788;2024-03-07T01:24:09;7.80;99.90
48604;DHT22;32708;51.212;6.788;2024-03-07T01:26:36;7.20;99.90
48604;DHT22;32708;51.212;6.788;2024-03-07T01:29:02;7.00;99.90
48604;DHT22;32708;51.212;6.788;2024-03-07T01:31:28;6.90;99.90
48604;DHT22;32708;51.212;6.788;2024-03-07T01:33:54;6.70;99.90
48604;DHT22;32708;51.212;6.788;2024-03-07T01:36:21;7.40;99.90
48604;DHT22;32708;51.212;6.788;2024-03-07T01:38:47;6.70;99.90
48604;DHT22;32708;51.212;6.788;2024-03-07T01:41:13;6.70;99.90
48604;DHT22;32708;51.212;6.788;2024-03-07T01:43:41;6.70;99.90
48604;DHT22;32708;51.212;6.788;2024-03-07T01:46:08;7.60;99.90
48604;DHT22;32708;51.212;6.788;2024-03-07T01:48:37;6.70;99.90
48604;DHT22;32708;51.212;6.788;2024-03-07T01:51:06;7.00;99.90
48604;DHT22;32708;51.212;6.788;2024-03-07T01:53:33;6.80;99.90
48604;DHT22;32708;51.212;6.788;2024-03-07T01:56:02;6.70;99.90
48604;DHT22;32708;51.212;6.788;2024-03-07T01:58:30;6.70;99.90
48604;DHT22;32708;51.212;6.788;2024-03-07T02:01:00;6.60;99.90
48604;DHT22;32708;51.212;6.788;2024-03-07T02:03:26;6.70;99.90
48604;DHT22;32708;51.212;6.788;2024-03-07T02:05:52;6.60;99.90
48604;DHT22;32708;51.212;6.788;2024-03-07T02:08:18;6.70;99.90
48604;DHT22;32708;51.212;6.788;2024-03-07T02:10:45;6.70;99.90
48604;DHT22;32708;51.212;6.788;2024-03-07T02:13:12;6.60;99.90
48604;DHT22;32708;51.212;6.788;2024-03-07T02:15:38;6.70;99.90
48604;DHT22;32708;51.212;6.788;2024-03-07T02:18:04;6.80;99.90
48604;DHT22;32708;51.212;6.788;2024-03-07T02:20:31;6.80;99.90
48604;DHT22;32708;51.212;6.788;2024-03-07T02:22:57;6.80;99.90
48604;DHT22;32708;51.212;6.788;2024-03-07T02:25:23;6.80;99.90
48604;DHT22;32708;51.212;6.788;2024-03-07T02:27:49;6.80;99.90
48604;DHT22;32708;51.212;6.788;2024-03-07T02:30:15;6.60;99.90
48604;DHT22;32708;51.212;6.788;2024-03-07T02:32:46;6.70;99.90
48604;DHT22;32708;51.212;6.788;2024-03-07T02:35:18;6.80;99.90
48604;DHT22;32708;51.212;6.788;2024-03-07T02:37:44;6.80;99.90
48604;DHT22;32708;51.212;6.788;2024-03-07T02:40:12;6.70;99.90
48604;DHT22;32708;51.212;6.788;2024-03-07T02:42:39;6.80;99.90
48604;DHT22;32708;51.212;6.788;2024-03-07T02:45:06;6.80;99.90
48604;DHT22;32708;51.212;6.788;2024-03-07T02:47:32;6.80;99.90
48604;DHT22;32708;51.212;6.788;2024-03-07T02:49:59;6.80;99.90
48604;DHT22;32708;51.212;6.788;2024-03-07T02:52:25;6.80;99.90
48604;DHT22;32708;51.212;6.788;2024-03-07T02:54:51;7.40;99.90
48604;DHT22;32708;51.212;6.788;2024-03-07T02:57:17;7.10;99.90
48604;DHT22;32708;51.212;6.788;2024-03-07T02:59:43;6.90;99.90
48604;DHT22;32708;51.212;6.788;2024-03-07T03:02:09;7.00;99.90
48604;DHT22;32708;51.212;6.788;2024-03-07T03:04:38;7.00;99.90
48604;DHT22;32708;51.212;6.788;2024-03-07T03:07:04;6.50;99.90
48604;DHT22;32708;51.212;6.788;2024-03-07T03:09:31;6.80;99.90
48604;DHT22;32708;51.212;6.788;2024-03-07T03:11:59;6.40;99.90
48604;DHT22;32708;51.212;6.788;2024-03-07T03:14:25;6.30;99.90
48604;DHT22;32708;51.212;6.788;2024-03-07T03:16:51;6.40;99.90
48604;DHT22;32708;51.212;6.788;2024-03-07T03:19:17;6.40;99.90
48604;DHT22;32708;51.212;6.788;2024-03-07T03:21:43;6.80;99.90
48604;DHT22;32708;51.212;6.788;2024-03-07T03:24:09;6.20;99.90
48604;DHT22;32708;51.212;6.788;2024-03-07T03:26:36;6.10;99.90
48604;DHT22;32708;51.212;6.788;2024-03-07T03:29:02;6.00;99.90
48604;DHT22;32708;51.212;6.788;2024-03-07T03:31:28;5.90;99.90
48604;DHT22;32708;51.212;6.788;2024-03-07T03:33:54;6.00;99.90
48604;DHT22;32708;51.212;6.788;2024-03-07T03:36:21;6.10;99.90
48604;DHT22;32708;51.212;6.788;2024-03-07T03:38:47;6.10;99.90
48604;DHT22;32708;51.212;6.788;2024-03-07T03:41:16;6.10;99.90
48604;DHT22;32708;51.212;6.788;2024-03-07T03:43:43;6.00;99.90
48604;DHT22;32708;51.212;6.788;2024-03-07T03:46:10;6.00;99.90
48604;DHT22;32708;51.212;6.788;2024-03-07T03:48:40;6.20;99.90
48604;DHT22;32708;51.212;6.788;2024-03-07T03:51:07;5.90;99.90
48604;DHT22;32708;51.212;6.788;2024-03-07T03:53:35;6.60;99.90
48604;DHT22;32708;51.212;6.788;2024-03-07T03:56:03;5.90;99.90
48604;DHT22;32708;51.212;6.788;2024-03-07T03:58:32;5.90;99.90
48604;DHT22;32708;51.212;6.788;2024-03-07T04:00:59;6.10;99.90
48604;DHT22;32708;51.212;6.788;2024-03-07T04:03:25;6.40;99.90
48604;DHT22;32708;51.212;6.788;2024-03-07T04:05:52;6.10;99.90
48604;DHT22;32708;51.212;6.788;2024-03-07T04:08:19;6.10;99.90
48604;DHT22;32708;51.212;6.788;2024-03-07T04:10:46;6.00;99.90
48604;DHT22;32708;51.212;6.788;2024-03-07T04:13:12;6.60;99.90
48604;DHT22;32708;51.212;6.788;2024-03-07T04:15:39;6.10;99.90
48604;DHT22;32708;51.212;6.788;2024-03-07T04:18:05;6.00;99.90
48604;DHT22;32708;51.212;6.788;2024-03-07T04:20:31;6.00;99.90
48604;DHT22;32708;51.212;6.788;2024-03-07T04:22:57;6.00;99.90
48604;DHT22;32708;51.212;6.788;2024-03-07T04:25:23;6.00;99.90
48604;DHT22;32708;51.212;6.788;2024-03-07T04:27:50;6.00;99.90
48604;DHT22;32708;51.212;6.788;2024-03-07T04:30:17;5.80;99.90
48604;DHT22;32708;51.212;6.788;2024-03-07T04:32:43;5.90;99.90
48604;DHT22;32708;51.212;6.788;2024-03-07T04:35:09;5.70;99.90
48604;DHT22;32708;51.212;6.788;2024-03-07T04:37:39;5.60;99.90
48604;DHT22;32708;51.212;6.788;2024-03-07T04:40:08;5.60;99.90
48604;DHT22;32708;51.212;6.788;2024-03-07T04:42:48;5.60;99.90
48604;DHT22;32708;51.212;6.788;2024-03-07T04:45:16;5.70;99.90
48604;DHT22;32708;51.212;6.788;2024-03-07T04:47:43;5.70;99.90
48604;DHT22;32708;51.212;6.788;2024-03-07T04:50:11;5.50;99.90
48604;DHT22;32708;51.212;6.788;2024-03-07T04:52:38;5.50;99.90
48604;DHT22;32708;51.212;6.788;2024-03-07T04:55:06;5.60;99.90
48604;DHT22;32708;51.212;6.788;2024-03-07T04:57:39;5.60;99.90
48604;DHT22;32708;51.212;6.788;2024-03-07T05:00:09;5.60;99.90
48604;DHT22;32708;51.212;6.788;2024-03-07T05:02:41;5.60;99.90
48604;DHT22;32708;51.212;6.788;2024-03-07T05:05:07;5.90;99.90
48604;DHT22;32708;51.212;6.788;2024-03-07T05:07:34;5.60;99.90
48604;DHT22;32708;51.212;6.788;2024-03-07T05:10:04;5.60;99.90
48604;DHT22;32708;51.212;6.788;2024-03-07T05:12:32;5.60;99.90
48604;DHT22;32708;51.212;6.788;2024-03-07T05:14:59;5.70;99.90
48604;DHT22;32708;51.212;6.788;2024-03-07T05:17:25;5.50;99.90
48604;DHT22;32708;51.212;6.788;2024-03-07T05:19:51;5.50;99.90
48604;DHT22;32708;51.212;6.788;2024-03-07T05:22:17;5.90;99.90
48604;DHT22;32708;51.212;6.788;2024-03-07T05:24:46;5.50;99.90
48604;DHT22;32708;51.212;6.788;2024-03-07T05:27:12;5.50;99.90
48604;DHT22;32708;51.212;6.788;2024-03-07T05:29:38;5.50;99.90
48604;DHT22;32708;51.212;6.788;2024-03-07T05:32:34;5.50;99.90
48604;DHT22;32708;51.212;6.788;2024-03-07T05:35:00;5.50;99.90
48604;DHT22;32708;51.212;6.788;2024-03-07T05:37:27;5.40;99.90
48604;DHT22;32708;51.212;6.788;2024-03-07T05:39:53;5.40;99.90
48604;DHT22;32708;51.212;6.788;2024-03-07T05:42:19;5.50;99.90
48604;DHT22;32708;51.212;6.788;2024-03-07T05:44:46;5.20;99.90
48604;DHT22;32708;51.212;6.788;2024-03-07T05:47:13;5.10;99.90
48604;DHT22;32708;51.212;6.788;2024-03-07T05:49:40;5.10;99.90
48604;DHT22;32708;51.212;6.788;2024-03-07T05:52:06;5.00;99.90
48604;DHT22;32708;51.212;6.788;2024-03-07T05:54:41;5.10;99.90
48604;DHT22;32708;51.212;6.788;2024-03-07T05:57:12;5.00;99.90
48604;DHT22;32708;51.212;6.788;2024-03-07T05:59:41;4.90;99.90
48604;DHT22;32708;51.212;6.788;2024-03-07T06:02:07;5.00;99.90
48604;DHT22;32708;51.212;6.788;2024-03-07T06:04:33;5.00;99.90
48604;DHT22;32708;51.212;6.788;2024-03-07T06:07:00;4.90;99.90
48604;DHT22;32708;51.212;6.788;2024-03-07T06:09:26;4.80;99.90
48604;DHT22;32708;51.212;6.788;2024-03-07T06:11:52;4.80;99.90
48604;DHT22;32708;51.212;6.788;2024-03-07T06:14:19;4.90;99.90
48604;DHT22;32708;51.212;6.788;2024-03-07T06:16:45;4.80;99.90
48604;DHT22;32708;51.212;6.788;2024-03-07T06:19:11;4.80;99.90
48604;DHT22;32708;51.212;6.788;2024-03-07T06:21:41;5.00;99.90
48604;DHT22;32708;51.212;6.788;2024-03-07T06:24:08;5.00;99.90
48604;DHT22;32708;51.212;6.788;2024-03-07T06:26:38;4.90;99.90
48604;DHT22;32708;51.212;6.788;2024-03-07T06:29:16;5.00;99.90
48604;DHT22;32708;51.212;6.788;2024-03-07T06:31:44;5.20;99.90
48604;DHT22;32708;51.212;6.788;2024-03-07T06:34:14;5.20;99.90
48604;DHT22;32708;51.212;6.788;2024-03-07T06:36:41;5.20;99.90
48604;DHT22;32708;51.212;6.788;2024-03-07T06:39:08;5.40;99.90
48604;DHT22;32708;51.212;6.788;2024-03-07T06:41:38;5.50;99.90
48604;DHT22;32708;51.212;6.788;2024-03-07T06:44:05;5.70;99.90
48604;DHT22;32708;51.212;6.788;2024-03-07T06:46:33;5.80;99.90
48604;DHT22;32708;51.212;6.788;2024-03-07T06:49:00;6.30;99.90
48604;DHT22;32708;51.212;6.788;2024-03-07T06:51:27;6.00;99.90
48604;DHT22;32708;51.212;6.788;2024-03-07T06:53:53;6.20;99.90
48604;DHT22;32708;51.212;6.788;2024-03-07T06:56:19;6.40;99.90
48604;DHT22;32708;51.212;6.788;2024-03-07T06:58:47;6.90;85.20
48604;DHT22;32708;51.212;6.788;2024-03-07T07:01:16;7.00;45.10
48604;DHT22;32708;51.212;6.788;2024-03-07T07:03:44;7.40;48.70
48604;DHT22;32708;51.212;6.788;2024-03-07T07:06:11;6.70;44.90
48604;DHT22;32708;51.212;6.788;2024-03-07T07:08:38;7.00;46.30
48604;DHT22;32708;51.212;6.788;2024-03-07T07:11:07;6.80;49.50
48604;DHT22;32708;51.212;6.788;2024-03-07T07:13:34;6.80;18.30
48604;DHT22;32708;51.212;6.788;2024-03-07T07:16:00;7.30;39.40
48604;DHT22;32708;51.212;6.788;2024-03-07T07:18:27;8.00;1.00
48604;DHT22;32708;51.212;6.788;2024-03-07T07:20:53;8.50;35.90
48604;DHT22;32708;51.212;6.788;2024-03-07T07:23:20;8.40;99.90
48604;DHT22;32708;51.212;6.788;2024-03-07T07:25:46;8.20;60.30
48604;DHT22;32708;51.212;6.788;2024-03-07T07:28:15;8.30;99.90
48604;DHT22;32708;51.212;6.788;2024-03-07T07:30:42;8.80;1.00
48604;DHT22;32708;51.212;6.788;2024-03-07T07:33:08;8.60;99.90
48604;DHT22;32708;51.212;6.788;2024-03-07T07:35:35;8.60;99.90
48604;DHT22;32708;51.212;6.788;2024-03-07T07:38:01;8.20;90.90
48604;DHT22;32708;51.212;6.788;2024-03-07T07:40:30;7.90;99.90
48604;DHT22;32708;51.212;6.788;2024-03-07T07:42:58;7.80;99.90
48604;DHT22;32708;51.212;6.788;2024-03-07T07:45:27;8.00;99.90
48604;DHT22;32708;51.212;6.788;2024-03-07T07:47:54;8.40;99.90
48604;DHT22;32708;51.212;6.788;2024-03-07T07:50:22;7.60;99.90
48604;DHT22;32708;51.212;6.788;2024-03-07T07:52:57;7.70;99.90
48604;DHT22;32708;51.212;6.788;2024-03-07T07:55:27;8.30;99.90
48604;DHT22;32708;51.212;6.788;2024-03-07T07:57:58;8.60;94.90
48604;DHT22;32708;51.212;6.788;2024-03-07T08:00:28;8.90;99.90
48604;DHT22;32708;51.212;6.788;2024-03-07T08:03:05;9.10;8.50
48604;DHT22;32708;51.212;6.788;2024-03-07T08:05:37;8.70;99.90
48604;DHT22;32708;51.212;6.788;2024-03-07T08:08:05;8.40;99.90
48604;DHT22;32708;51.212;6.788;2024-03-07T08:10:34;8.50;99.90
48604;DHT22;32708;51.212;6.788;2024-03-07T08:13:03;8.80;1.00
48604;DHT22;32708;51.212;6.788;2024-03-07T08:15:39;8.50;99.90
48604;DHT22;32708;51.212;6.788;2024-03-07T08:21:02;9.50;99.90
48604;DHT22;32708;51.212;6.788;2024-03-07T08:23:28;9.30;99.90
48604;DHT22;32708;51.212;6.788;2024-03-07T08:26:35;9.00;99.90
48604;DHT22;32708;51.212;6.788;2024-03-07T08:29:54;9.10;99.90
48604;DHT22;32708;51.212;6.788;2024-03-07T08:33:27;8.40;99.90
48604;DHT22;32708;51.212;6.788;2024-03-07T08:36:05;9.00;99.90
48604;DHT22;32708;51.212;6.788;2024-03-07T08:39:15;8.70;99.90
48604;DHT22;32708;51.212;6.788;2024-03-07T08:41:44;8.50;1.00
48604;DHT22;32708;51.212;6.788;2024-03-07T08:44:15;8.40;99.90
48604;DHT22;32708;51.212;6.788;2024-03-07T08:46:50;8.00;99.90
48604;DHT22;32708;51.212;6.788;2024-03-07T08:49:20;8.20;99.90
48604;DHT22;32708;51.212;6.788;2024-03-07T08:51:58;8.50;83.80
48604;DHT22;32708;51.212;6.788;2024-03-07T08:54:24;8.60;1.00
48604;DHT22;32708;51.212;6.788;2024-03-07T08:56:51;8.60;1.00
48604;DHT22;32708;51.212;6.788;2024-03-07T08:59:17;8.70;99.90
48604;DHT22;32708;51.212;6.788;2024-03-07T09:01:43;8.60;99.90
48604;DHT22;32708;51.212;6.788;2024-03-07T09:04:10;8.60;99.90
48604;DHT22;32708;51.212;6.788;2024-03-07T09:06:37;8.80;99.90
48604;DHT22;32708;51.212;6.788;2024-03-07T09:09:04;9.00;99.90
48604;DHT22;32708;51.212;6.788;2024-03-07T09:11:30;9.10;99.90
48604;DHT22;32708;51.212;6.788;2024-03-07T09:13:57;9.00;99.90
48604;DHT22;32708;51.212;6.788;2024-03-07T09:16:26;9.10;99.90
48604;DHT22;32708;51.212;6.788;2024-03-07T09:18:53;9.40;99.90
48604;DHT22;32708;51.212;6.788;2024-03-07T09:21:19;9.40;99.90
48604;DHT22;32708;51.212;6.788;2024-03-07T09:23:46;9.30;99.90
48604;DHT22;32708;51.212;6.788;2024-03-07T09:26:12;9.10;99.90
48604;DHT22;32708;51.212;6.788;2024-03-07T09:28:38;9.20;99.90
48604;DHT22;32708;51.212;6.788;2024-03-07T09:31:05;9.30;99.90
48604;DHT22;32708;51.212;6.788;2024-03-07T09:33:31;9.30;99.90
48604;DHT22;32708;51.212;6.788;2024-03-07T09:35:57;9.30;99.90
48604;DHT22;32708;51.212;6.788;2024-03-07T09:38:24;9.40;99.90
48604;DHT22;32708;51.212;6.788;2024-03-07T09:40:51;9.40;99.90
48604;DHT22;32708;51.212;6.788;2024-03-07T09:43:18;9.50;99.90
48604;DHT22;32708;51.212;6.788;2024-03-07T09:45:46;9.60;99.90
48604;DHT22;32708;51.212;6.788;2024-03-07T09:48:14;9.70;99.90
48604;DHT22;32708;51.212;6.788;2024-03-07T09:50:40;9.70;99.90
48604;DHT22;32708;51.212;6.788;2024-03-07T09:53:11;9.70;99.90
48604;DHT22;32708;51.212;6.788;2024-03-07T09:55:37;9.80;99.90
48604;DHT22;32708;51.212;6.788;2024-03-07T09:58:05;9.70;99.90
48604;DHT22;32708;51.212;6.788;2024-03-07T10:00:37;9.90;99.90
48604;DHT22;32708;51.212;6.788;2024-03-07T10:03:07;10.00;99.90
48604;DHT22;32708;51.212;6.788;2024-03-07T10:05:35;9.90;99.90
48604;DHT22;32708;51.212;6.788;2024-03-07T10:08:03;9.70;99.90
48604;DHT22;32708;51.212;6.788;2024-03-07T10:10:30;9.30;99.90
48604;DHT22;32708;51.212;6.788;2024-03-07T10:12:57;9.50;99.90
48604;DHT22;32708;51.212;6.788;2024-03-07T10:15:31;9.50;99.90
48604;DHT22;32708;51.212;6.788;2024-03-07T10:18:00;9.40;99.90
48604;DHT22;32708;51.212;6.788;2024-03-07T10:20:26;9.20;99.90
48604;DHT22;32708;51.212;6.788;2024-03-07T10:22:53;9.10;99.90
48604;DHT22;32708;51.212;6.788;2024-03-07T10:25:21;8.90;99.90
48604;DHT22;32708;51.212;6.788;2024-03-07T10:27:51;8.80;99.90
48604;DHT22;32708;51.212;6.788;2024-03-07T10:30:17;8.60;1.00
48604;DHT22;32708;51.212;6.788;2024-03-07T10:32:56;8.70;1.00
48604;DHT22;32708;51.212;6.788;2024-03-07T10:35:24;8.70;1.00
48604;DHT22;32708;51.212;6.788;2024-03-07T10:37:55;8.60;1.00
48604;DHT22;32708;51.212;6.788;2024-03-07T10:40:22;8.80;1.00
48604;DHT22;32708;51.212;6.788;2024-03-07T10:42:57;8.70;1.00
48604;DHT22;32708;51.212;6.788;2024-03-07T10:45:28;8.70;1.00
48604;DHT22;32708;51.212;6.788;2024-03-07T10:47:58;8.90;1.00
48604;DHT22;32708;51.212;6.788;2024-03-07T10:51:03;9.40;99.90
48604;DHT22;32708;51.212;6.788;2024-03-07T10:57:20;9.40;99.90
48604;DHT22;32708;51.212;6.788;2024-03-07T11:00:03;9.80;99.90
48604;DHT22;32708;51.212;6.788;2024-03-07T11:02:50;10.20;99.90
48604;DHT22;32708;51.212;6.788;2024-03-07T11:05:25;10.50;99.90
48604;DHT22;32708;51.212;6.788;2024-03-07T11:07:58;10.40;99.90
48604;DHT22;32708;51.212;6.788;2024-03-07T11:10:29;10.20;99.90
48604;DHT22;32708;51.212;6.788;2024-03-07T11:13:00;9.70;99.90
48604;DHT22;32708;51.212;6.788;2024-03-07T11:15:28;9.70;99.90
48604;DHT22;32708;51.212;6.788;2024-03-07T11:17:57;9.50;99.90
48604;DHT22;32708;51.212;6.788;2024-03-07T11:20:27;9.70;99.90
48604;DHT22;32708;51.212;6.788;2024-03-07T11:23:00;9.60;99.90
48604;DHT22;32708;51.212;6.788;2024-03-07T11:25:27;10.00;99.90
48604;DHT22;32708;51.212;6.788;2024-03-07T11:27:59;9.90;99.90
48604;DHT22;32708;51.212;6.788;2024-03-07T11:30:26;10.10;99.90
48604;DHT22;32708;51.212;6.788;2024-03-07T11:32:54;10.20;99.90
48604;DHT22;32708;51.212;6.788;2024-03-07T11:35:34;10.20;99.90
48604;DHT22;32708;51.212;6.788;2024-03-07T11:38:06;10.10;99.90
48604;DHT22;32708;51.212;6.788;2024-03-07T11:43:01;10.10;99.90
48604;DHT22;32708;51.212;6.788;2024-03-07T11:45:31;10.20;99.90
48604;DHT22;32708;51.212;6.788;2024-03-07T11:48:11;10.50;99.90
48604;DHT22;32708;51.212;6.788;2024-03-07T11:50:39;10.70;99.90
48604;DHT22;32708;51.212;6.788;2024-03-07T11:53:08;10.80;99.90
48604;DHT22;32708;51.212;6.788;2024-03-07T11:55:36;10.90;99.90
48604;DHT22;32708;51.212;6.788;2024-03-07T11:58:19;11.30;99.90
48604;DHT22;32708;51.212;6.788;2024-03-07T12:00:51;11.70;99.90
48604;DHT22;32708;51.212;6.788;2024-03-07T12:03:21;11.50;99.90
48604;DHT22;32708;51.212;6.788;2024-03-07T12:06:02;11.30;99.90
48604;DHT22;32708;51.212;6.788;2024-03-07T12:08:31;11.20;99.90
48604;DHT22;32708;51.212;6.788;2024-03-07T12:10:58;10.90;99.90
48604;DHT22;32708;51.212;6.788;2024-03-07T12:13:25;10.70;99.90
48604;DHT22;32708;51.212;6.788;2024-03-07T12:15:53;10.60;99.90
48604;DHT22;32708;51.212;6.788;2024-03-07T12:18:22;10.50;99.90
48604;DHT22;32708;51.212;6.788;2024-03-07T12:20:50;10.70;99.90
48604;DHT22;32708;51.212;6.788;2024-03-07T12:23:22;10.80;99.90
48604;DHT22;32708;51.212;6.788;2024-03-07T12:26:01;10.80;99.90
48604;DHT22;32708;51.212;6.788;2024-03-07T12:28:28;10.50;99.90
48604;DHT22;32708;51.212;6.788;2024-03-07T12:30:59;10.60;99.90
48604;DHT22;32708;51.212;6.788;2024-03-07T12:33:30;10.70;99.90
48604;DHT22;32708;51.212;6.788;2024-03-07T12:36:02;10.60;99.90
48604;DHT22;32708;51.212;6.788;2024-03-07T12:38:32;10.70;99.90
48604;DHT22;32708;51.212;6.788;2024-03-07T12:41:06;10.30;99.90
48604;DHT22;32708;51.212;6.788;2024-03-07T12:43:40;10.60;99.90
48604;DHT22;32708;51.212;6.788;2024-03-07T12:46:12;10.70;99.90
48604;DHT22;32708;51.212;6.788;2024-03-07T12:48:41;10.50;99.90
48604;DHT22;32708;51.212;6.788;2024-03-07T12:51:08;10.70;99.90
48604;DHT22;32708;51.212;6.788;2024-03-07T12:53:37;10.80;99.90
48604;DHT22;32708;51.212;6.788;2024-03-07T12:56:03;10.60;99.90
48604;DHT22;32708;51.212;6.788;2024-03-07T12:58:36;10.60;99.90
48604;DHT22;32708;51.212;6.788;2024-03-07T13:01:13;10.80;99.90
48604;DHT22;32708;51.212;6.788;2024-03-07T13:03:39;11.00;99.90
48604;DHT22;32708;51.212;6.788;2024-03-07T13:06:05;10.90;99.90
48604;DHT22;32708;51.212;6.788;2024-03-07T13:08:31;11.00;99.90
48604;DHT22;32708;51.212;6.788;2024-03-07T13:10:58;10.80;99.90
48604;DHT22;32708;51.212;6.788;2024-03-07T13:13:25;10.50;99.90
48604;DHT22;32708;51.212;6.788;2024-03-07T13:15:51;10.50;99.90
48604;DHT22;32708;51.212;6.788;2024-03-07T13:18:20;10.50;99.90
48604;DHT22;32708;51.212;6.788;2024-03-07T13:20:47;10.80;99.90
48604;DHT22;32708;51.212;6.788;2024-03-07T13:23:14;10.60;99.90
48604;DHT22;32708;51.212;6.788;2024-03-07T13:25:40;10.60;99.90
48604;DHT22;32708;51.212;6.788;2024-03-07T13:28:11;10.50;99.90
48604;DHT22;32708;51.212;6.788;2024-03-07T13:30:43;10.50;99.90
48604;DHT22;32708;51.212;6.788;2024-03-07T13:33:10;10.50;99.90
48604;DHT22;32708;51.212;6.788;2024-03-07T13:35:40;10.40;99.90
48604;DHT22;32708;51.212;6.788;2024-03-07T13:38:07;10.60;99.90
48604;DHT22;32708;51.212;6.788;2024-03-07T13:40:40;10.60;99.90
48604;DHT22;32708;51.212;6.788;2024-03-07T13:43:07;10.60;99.90
48604;DHT22;32708;51.212;6.788;2024-03-07T13:45:35;10.50;99.90
48604;DHT22;32708;51.212;6.788;2024-03-07T13:48:07;10.20;12.10
48604;DHT22;32708;51.212;6.788;2024-03-07T13:50:37;10.20;99.90
48604;DHT22;32708;51.212;6.788;2024-03-07T13:53:16;10.10;99.90
48604;DHT22;32708;51.212;6.788;2024-03-07T13:59:21;10.10;99.90
48604;DHT22;32708;51.212;6.788;2024-03-07T14:02:47;10.20;99.90
48604;DHT22;32708;51.212;6.788;2024-03-07T14:09:09;10.20;99.90
48604;DHT22;32708;51.212;6.788;2024-03-07T14:31:14;10.20;18.50
48604;DHT22;32708;51.212;6.788;2024-03-07T14:36:40;10.30;22.60
48604;DHT22;32708;51.212;6.788;2024-03-07T14:39:15;10.20;1.00
48604;DHT22;32708;51.212;6.788;2024-03-07T14:42:06;10.20;99.90
48604;DHT22;32708;51.212;6.788;2024-03-07T14:44:42;10.40;99.90
48604;DHT22;32708;51.212;6.788;2024-03-07T14:47:12;10.40;99.90
48604;DHT22;32708;51.212;6.788;2024-03-07T14:49:49;10.70;99.90
48604;DHT22;32708;51.212;6.788;2024-03-07T14:52:36;10.60;99.90
48604;DHT22;32708;51.212;6.788;2024-03-07T14:55:14;10.70;99.90
48604;DHT22;32708;51.212;6.788;2024-03-07T14:57:41;10.60;99.90
48604;DHT22;32708;51.212;6.788;2024-03-07T15:00:08;10.60;99.90
48604;DHT22;32708;51.212;6.788;2024-03-07T15:02:49;10.50;99.90
48604;DHT22;32708;51.212;6.788;2024-03-07T15:05:18;10.50;99.90
48604;DHT22;32708;51.212;6.788;2024-03-07T15:07:47;10.50;99.90
48604;DHT22;32708;51.212;6.788;2024-03-07T15:10:32;10.50;99.90
48604;DHT22;32708;51.212;6.788;2024-03-07T15:13:00;10.30;99.90
48604;DHT22;32708;51.212;6.788;2024-03-07T15:15:30;10.30;99.90
48604;DHT22;32708;51.212;6.788;2024-03-07T15:17:57;10.40;99.90
48604;DHT22;32708;51.212;6.788;2024-03-07T15:20:24;10.30;99.90
48604;DHT22;32708;51.212;6.788;2024-03-07T15:22:56;10.30;99.90
48604;DHT22;32708;51.212;6.788;2024-03-07T15:25:28;10.50;99.90
48604;DHT22;32708;51.212;6.788;2024-03-07T15:27:57;10.30;99.90
48604;DHT22;32708;51.212;6.788;2024-03-07T15:30:26;10.50;99.90
48604;DHT22;32708;51.212;6.788;2024-03-07T15:33:03;10.40;99.90
48604;DHT22;32708;51.212;6.788;2024-03-07T15:35:30;10.30;99.90
48604;DHT22;32708;51.212;6.788;2024-03-07T15:37:57;10.30;99.90
48604;DHT22;32708;51.212;6.788;2024-03-07T15:40:24;10.10;99.90
48604;DHT22;32708;51.212;6.788;2024-03-07T15:42:51;9.90;99.90
48604;DHT22;32708;51.212;6.788;2024-03-07T15:45:20;9.90;99.90
48604;DHT22;32708;51.212;6.788;2024-03-07T15:48:00;10.00;99.90
48604;DHT22;32708;51.212;6.788;2024-03-07T15:50:34;9.90;99.90
48604;DHT22;32708;51.212;6.788;2024-03-07T15:53:03;9.90;99.90
48604;DHT22;32708;51.212;6.788;2024-03-07T15:55:33;10.00;99.90
48604;DHT22;32708;51.212;6.788;2024-03-07T15:58:01;10.10;99.90
48604;DHT22;32708;51.212;6.788;2024-03-07T16:00:32;10.10;99.90
48604;DHT22;32708;51.212;6.788;2024-03-07T16:03:04;10.20;99.90
48604;DHT22;32708;51.212;6.788;2024-03-07T16:05:37;10.10;99.90
48604;DHT22;32708;51.212;6.788;2024-03-07T16:08:06;10.20;99.90
48604;DHT22;32708;51.212;6.788;2024-03-07T16:10:39;10.20;99.90
48604;DHT22;32708;51.212;6.788;2024-03-07T16:13:09;10.20;99.90
48604;DHT22;32708;51.212;6.788;2024-03-07T16:15:38;10.20;99.90
48604;DHT22;32708;51.212;6.788;2024-03-07T16:18:05;10.00;99.90
48604;DHT22;32708;51.212;6.788;2024-03-07T16:20:36;10.10;99.90
48604;DHT22;32708;51.212;6.788;2024-03-07T16:23:03;10.10;99.90
48604;DHT22;32708;51.212;6.788;2024-03-07T16:25:35;10.10;99.90
48604;DHT22;32708;51.212;6.788;2024-03-07T16:28:05;10.00;99.90
48604;DHT22;32708;51.212;6.788;2024-03-07T16:30:33;10.00;99.90
48604;DHT22;32708;51.212;6.788;2024-03-07T16:33:00;10.00;99.90
48604;DHT22;32708;51.212;6.788;2024-03-07T16:35:28;10.00;99.90